Home > Products > Valid Products > MTR

000
SAUS46 KSGX 310454
MTRCZZ
METAR KCZZ 310452Z AUTO 22004KT 23/14 A3000 RMK AO1 SLP119 T02330139





000
SAUS46 KSGX 310452
MTRSAN
METAR KSAN 310451Z 30006KT 9SM FEW008 SCT250 23/19 A2995 RMK AO2
SLP143 T02280194





000
SAUS46 KSGX 310354
MTRCZZ
METAR KCZZ 310352Z AUTO 00000KT 25/14 A2999 RMK AO1 SLP117 T02500139





000
SAUS46 KSGX 310354
MTRCZZ
METAR KCZZ 310352Z AUTO 00000KT 25/14 A2999 RMK AO1 SLP117 T02500139





000
SAUS46 KSGX 310352
MTRSAN
METAR KSAN 310351Z 31004KT 9SM FEW008 SCT250 23/19 A2994 RMK AO2
SLP139 T02280194





000
SAUS46 KSGX 310352
MTRSAN
METAR KSAN 310351Z 31004KT 9SM FEW008 SCT250 23/19 A2994 RMK AO2
SLP139 T02280194





000
SAUS46 KSGX 310254
MTRCZZ
METAR KCZZ 310252Z AUTO 23008KT 28/13 A2998 RMK AO1 SLP113 T02780128
53006





000
SAUS46 KSGX 310252
MTRSAN
METAR KSAN 310251Z 31006KT 9SM FEW008 SCT250 23/19 A2992 RMK AO2
SLP133 T02330189 53001





000
SAUS46 KSGX 310157 COR
MTRCZZ
METAR KCZZ 310152Z AUTO VRB06G15KT 31/11 A2996 RMK AO1 SLP110
T03110111





000
SAUS46 KSGX 310155
MTRCZZ
METAR KCZZ 310152Z AUTO VRB06G15KT 31/11 A2996 RMK AO1 SLP110
T03110111





000
SAUS46 KSGX 310155
MTRSAN
METAR KSAN 310151Z 29008KT 10SM FEW008 SCT250 24/18 A2991 RMK AO2
SLP128 T02440178





000
SAUS46 KSGX 310054
MTRCZZ
METAR KCZZ 310052Z AUTO 28012G18KT 33/10 A2995 RMK AO1 SLP106
T03330100





000
SAUS46 KSGX 310053
MTRSAN
METAR KSAN 310051Z 28009KT 10SM FEW008 SCT250 25/18 A2991 RMK AO2
SLP129 T02500178





000
SAUS46 KSGX 302354
MTRCZZ
METAR KCZZ 302352Z AUTO 28014G20KT 34/11 A2995 RMK AO1 PK WND
28026/2301 SLP107 T03390106 10367 20311 56007





000
SAUS46 KSGX 302352
MTRSAN
METAR KSAN 302351Z 29008KT 10SM FEW008 SCT250 26/17 A2992 RMK AO2
SLP132 T02610172 10272 20250 57012





000
SAUS46 KSGX 302254
MTRCZZ
METAR KCZZ 302252Z AUTO 30015G21KT 36/08 A2996 RMK AO1 SLP106
T03560078





000
SAUS46 KSGX 302252
MTRSAN
METAR KSAN 302251Z 29009KT 10SM FEW008 SCT250 26/18 A2993 RMK AO2
SLP136 T02610178





000
SAUS46 KSGX 302154
MTRCZZ
METAR KCZZ 302152Z AUTO 30014G23KT 37/08 A2997 RMK AO1 SLP110
T03670083





000
SAUS46 KSGX 302152
MTRSAN
METAR KSAN 302151Z 30008KT 10SM FEW008 SCT250 26/17 A2995 RMK AO2
SLP141 T02610172 $





000
SAUS46 KSGX 302055
MTRCZZ
METAR KCZZ 302052Z AUTO 24016KT 36/10 A2998 RMK AO1 SLP112 T03560100
56009





000
SAUS46 KSGX 302053
MTRSAN
METAR KSAN 302051Z 30008KT 10SM FEW008 SCT250 27/17 A2996 RMK AO2
SLP144 T02670172 56007





000
SAUS46 KSGX 301954
MTRCZZ
METAR KCZZ 301952Z AUTO 23016KT 35/09 A2999 RMK AO1 SLP115 T03500094





000
SAUS46 KSGX 301952
MTRSAN
METAR KSAN 301951Z 29007KT 10SM FEW008 SCT250 26/18 A2996 RMK AO2
SLP146 T02610178





000
SAUS46 KSGX 301854
MTRCZZ
METAR KCZZ 301852Z AUTO 21013KT 33/08 A2999 RMK AO1 SLP119 T03280083





000
SAUS46 KSGX 301852
MTRSAN
METAR KSAN 301851Z 30005KT 10SM FEW008 SCT250 26/17 A2996 RMK AO2
SLP146 T02610172





000
SAUS46 KSGX 301754
MTRCZZ
METAR KCZZ 301752Z AUTO 20016KT 31/07 A3001 RMK AO1 SLP124 T03110072
10322 20150 56006





000
SAUS46 KSGX 301752
MTRSAN
METAR KSAN 301751Z VRB05KT 10SM FEW008 SCT250 26/18 A2998 RMK AO2
SLP151 T02560183 10256 20217 51003





000
SAUS46 KSGX 301653
MTRCZZ
METAR KCZZ 301652Z AUTO VRB06KT 31/07 A3001 RMK AO1 SLP123 T03060067





000
SAUS46 KSGX 301652
MTRSAN
METAR KSAN 301651Z 27006KT 10SM FEW008 SCT250 24/18 A2998 RMK AO2
SLP150 T02440183





000
SAUS46 KSGX 301554
MTRCZZ
METAR KCZZ 301552Z AUTO 00000KT 28/07 A3002 RMK AO1 SLP129 T02780072





000
SAUS46 KSGX 301552
MTRSAN
METAR KSAN 301551Z 30003KT 9SM FEW008 SCT250 24/18 A2997 RMK AO2
SLP150 T02390183 $





000
SAUS46 KSGX 301453
MTRCZZ
METAR KCZZ 301452Z AUTO 00000KT 23/07 A3003 RMK AO1 SLP131 T02330072
50005





000
SAUS46 KSGX 301452
MTRSAN
METAR KSAN 301451Z 33003KT 9SM FEW008 SCT250 23/18 A2997 RMK AO2
SLP148 T02280183 53004 $





000
SAUS46 KSGX 301353
MTRCZZ
METAR KCZZ 301352Z AUTO 05005KT 17/07 A3003 RMK AO1 SLP134 T01720067





000
SAUS46 KSGX 301352
MTRSAN
METAR KSAN 301351Z 00000KT 8SM FEW008 SCT250 22/18 A2996 RMK AO2
SLP144 T02220183 $





000
SAUS46 KSGX 301254
MTRCZZ
METAR KCZZ 301252Z AUTO 03005KT 16/06 A3002 RMK AO1 SLP131 T01560061





000
SAUS46 KSGX 301253
MTRSAN
METAR KSAN 301251Z 00000KT 9SM SCT008 SCT250 22/19 A2996 RMK AO2
SLP144 T02170189 $





000
SAUS46 KSGX 301246
MTRSAN
SPECI KSAN 301245Z 00000KT 9SM SCT008 SCT250 22/19 A2996 RMK AO2 $





000
SAUS46 KSGX 301212
MTRSAN
SPECI KSAN 301211Z 36004KT 9SM BKN008 BKN250 22/19 A2996 RMK AO2 $





000
SAUS46 KSGX 301153
MTRCZZ
METAR KCZZ 301152Z AUTO 04005KT 16/07 A3001 RMK AO1 SLP127 T01560067
10206 20150 56003





000
SAUS46 KSGX 301152
MTRSAN
METAR KSAN 301151Z 32003KT 10SM SCT008 BKN250 22/19 A2996 RMK AO2
SLP143 T02170189 10228 20217 55001 $





000
SAUS46 KSGX 301133
MTRSAN
SPECI KSAN 301131Z 33003KT 10SM SCT008 BKN250 22/19 A2996 RMK AO2 $





000
SAUS46 KSGX 301130
MTRSAN
METAR KSAN 301051Z COR 32004KT 10SM BKN009 BKN250 22/19 A2995 RMK
AO2 SLP143 T02170189 $





000
SAUS46 KSGX 301054
MTRCZZ
METAR KCZZ 301052Z AUTO 02003KT 17/07 A3001 RMK AO1 SLP125 T01670067





000
SAUS46 KSGX 301052
MTRSAN
METAR KSAN 301051Z 32004KT 10SM BKN009 22/19 A2995 RMK AO2 SLP143
T02170189 $





000
SAUS46 KSGX 300954
MTRCZZ
METAR KCZZ 300952Z AUTO 05005KT 16/07 A3001 RMK AO1 SLP128 T01560067





000
SAUS46 KSGX 300952
MTRSAN
METAR KSAN 300951Z 30004KT 9SM BKN007 BKN250 22/19 A2996 RMK AO2
SLP145 T02170194 $





000
SAUS46 KSGX 300942
MTRSAN
SPECI KSAN 300941Z 30004KT 9SM BKN007 BKN250 22/19 A2996 RMK AO2 $





000
SAUS46 KSGX 300853
MTRCZZ
METAR KCZZ 300852Z AUTO 06005KT 17/07 A3002 RMK AO1 SLP130 T01670072
56009





000
SAUS46 KSGX 300852
MTRSAN
METAR KSAN 300851Z 34003KT 9SM FEW010 BKN250 22/19 A2996 RMK AO2
SLP144 T02220194 56011 $





000
SAUS46 KSGX 300754
MTRCZZ
METAR KCZZ 300752Z AUTO 36003KT 18/07 A3003 RMK AO1 SLP132 T01780072
403440150





000
SAUS46 KSGX 300752
MTRSAN
METAR KSAN 300751Z 30004KT 9SM FEW010 BKN250 22/19 A2997 RMK AO2
SLP148 T02170194 402940217 $





000
SAUS46 KSGX 300655
MTRCZZ
METAR KCZZ 300652Z AUTO 02003KT 19/08 A3004 RMK AO1 SLP134 T01890078





000
SAUS46 KSGX 300652
MTRSAN
METAR KSAN 300651Z 29003KT 9SM FEW010 BKN250 22/19 A2997 RMK AO2
SLP149 T02220189 $





000
SAUS46 KSGX 300555
MTRCZZ
METAR KCZZ 300552Z AUTO 00000KT 19/08 A3005 RMK AO1 SLP138 T01940083
10333 20189 50009





000
SAUS46 KSGX 300552
MTRSAN
METAR KSAN 300551Z 32005KT 9SM FEW010 SCT200 22/19 A2999 RMK AO2
SLP155 T02220194 10261 20222 50004 $





000
SAUS46 KSGX 300454
MTRCZZ
METAR KCZZ 300452Z AUTO 21006KT 22/09 A3006 RMK AO1 SLP139 T02220094





000
SAUS46 KSGX 300452
MTRSAN
METAR KSAN 300451Z 30006KT 10SM FEW010 SCT210 23/19 A3000 RMK AO2
SLP157 T02280189 $





000
SAUS46 KSGX 300353
MTRCZZ
METAR KCZZ 300352Z AUTO 19007KT 23/09 A3004 RMK AO1 SLP138 T02330094





000
SAUS46 KSGX 300352
MTRSAN
METAR KSAN 300351Z 28004KT 10SM FEW010 SCT210 23/19 A2999 RMK AO2
SLP155 T02280189 $





000
SAUS46 KSGX 300254
MTRCZZ
METAR KCZZ 300252Z AUTO 27006KT 27/08 A3002 RMK AO1 SLP130 T02720078
53007





000
SAUS46 KSGX 300252
MTRSAN
METAR KSAN 300251Z 30006KT 10SM FEW010 SCT250 23/19 A2998 RMK AO2
SLP151 T02330189 53005 $





000
SAUS46 KSGX 300155
MTRCZZ
METAR KCZZ 300152Z AUTO 23006KT 30/07 A3000 RMK AO1 SLP126 T03000072





000
SAUS46 KSGX 300152
MTRSAN
METAR KSAN 300151Z 28006KT 10SM FEW010 BKN250 25/16 A2997 RMK AO2
SLP147 T02500161 $





000
SAUS46 KSGX 300054
MTRCZZ
METAR KCZZ 300052Z AUTO 26009KT 32/07 A3000 RMK AO1 SLP125 T03170072





000
SAUS46 KSGX 300052
MTRSAN
METAR KSAN 300051Z 30007KT 10SM FEW010 BKN250 26/17 A2997 RMK AO2
SLP148 T02560167 $





000
SAUS46 KSGX 292354
MTRCZZ
METAR KCZZ 292352Z AUTO 24010G19KT 33/09 A3000 RMK AO1 SLP123
T03330089 10344 20311 56012





000
SAUS46 KSGX 292352
MTRSAN
METAR KSAN 292351Z 29012KT 10SM FEW010 SCT250 26/17 A2997 RMK AO2
SLP147 T02610172 10294 20261 56008 $





000
SAUS46 KSGX 292253
MTRCZZ
METAR KCZZ 292252Z AUTO 26011G21KT 34/09 A3001 RMK AO1 SLP125
T03390094





000
SAUS46 KSGX 292252
MTRSAN
METAR KSAN 292251Z 31011KT 10SM FEW010 SCT250 27/14 A2997 RMK AO2
SLP147 T02720144 $





000
SAUS46 KSGX 292153
MTRCZZ
METAR KCZZ 292152Z AUTO 29007G17KT 250V320 33/09 A3002 RMK AO1
SLP127 T03330094





000
SAUS46 KSGX 292152
MTRSAN
METAR KSAN 292151Z 30010KT 10SM FEW070 SCT250 29/10 A2997 RMK AO2
SLP150 T02890100





000
SAUS46 KSGX 292053
MTRCZZ
METAR KCZZ 292052Z AUTO 26009G19KT 33/09 A3004 RMK AO1 SLP134
T03330089 58012





000
SAUS46 KSGX 292052
MTRSAN
METAR KSAN 292051Z 29011KT 10SM FEW070 BKN250 29/12 A2999 RMK AO2
SLP155 T02890122 56018 $





000
SAUS46 KSGX 291954
MTRCZZ
METAR KCZZ 291952Z AUTO 27009G17KT 33/08 A3005 RMK AO1 SLP139
T03330083





000
SAUS46 KSGX 291952
MTRSAN
METAR KSAN 291951Z 31011KT 10SM FEW070 BKN250 28/15 A3000 RMK AO2
SLP160 T02830150





000
SAUS46 KSGX 291853
MTRCZZ
METAR KCZZ 291852Z AUTO 27011G17KT 33/08 A3007 RMK AO1 SLP143
T03280083





000
SAUS46 KSGX 291852
MTRSAN
METAR KSAN 291851Z 30009KT 10SM FEW010 BKN250 28/18 A3002 RMK AO2
SLP167 T02780178 $





000
SAUS46 KSGX 291754
MTRCZZ
METAR KCZZ 291752Z AUTO 27010KT 32/09 A3008 RMK AO1 SLP146 T03220094
10322 20150 58004





000
SAUS46 KSGX 291752
MTRSAN
METAR KSAN 291751Z 31008KT 10SM FEW010 BKN250 27/17 A3004 RMK AO2
SLP173 T02720172 10272 20217 50001





000
SAUS46 KSGX 291654
MTRCZZ
METAR KCZZ 291652Z AUTO 28010KT 31/09 A3008 RMK AO1 SLP148 T03060094





000
SAUS46 KSGX 291652
MTRSAN
METAR KSAN 291651Z 30007KT 10SM FEW010 SCT250 26/18 A3004 RMK AO2
SLP173 T02610178





000
SAUS46 KSGX 291553
MTRCZZ
METAR KCZZ 291552Z AUTO 19007KT 27/09 A3009 RMK AO1 SLP151 T02670089





000
SAUS46 KSGX 291552
MTRSAN
METAR KSAN 291551Z 28004KT 10SM FEW010 SCT250 25/18 A3005 RMK AO2
SLP175 T02500183





000
SAUS46 KSGX 291453
MTRCZZ
METAR KCZZ 291452Z AUTO 00000KT 23/09 A3009 RMK AO1 SLP154 T02330094
51003





000
SAUS46 KSGX 291452
MTRSAN
METAR KSAN 291451Z 33003KT 10SM FEW010 SCT250 24/18 A3004 RMK AO2
SLP172 T02390178 53008





000
SAUS46 KSGX 291353
MTRCZZ
METAR KCZZ 291352Z AUTO 05005KT 17/08 A3009 RMK AO1 SLP156 T01720083





000
SAUS46 KSGX 291352
MTRSAN
METAR KSAN 291351Z 33008KT 7SM FEW010 SCT250 22/19 A3002 RMK AO2
SLP167 T02220189





000
SAUS46 KSGX 291253
MTRCZZ
METAR KCZZ 291252Z AUTO 04003KT 16/08 A3008 RMK AO1 SLP152 T01610083





000
SAUS46 KSGX 291252
MTRSAN
METAR KSAN 291251Z 33003KT 9SM FEW010 22/18 A3002 RMK AO2 SLP166
T02220183





000
SAUS46 KSGX 291155
MTRCZZ
METAR KCZZ 291152Z AUTO 03003KT 17/09 A3008 RMK AO1 SLP150 T01670089
10206 20156 58005





000
SAUS46 KSGX 291152
MTRSAN
METAR KSAN 291151Z 00000KT 10SM FEW010 22/18 A3002 RMK AO2 SLP164
T02220183 10233 20222 56007





000
SAUS46 KSGX 291054
MTRCZZ
METAR KCZZ 291052Z AUTO 00000KT 16/09 A3009 RMK AO1 SLP153 T01610089





000
SAUS46 KSGX 291052
MTRSAN
METAR KSAN 291051Z 35004KT 10SM FEW010 SCT250 22/18 A3002 RMK AO2
SLP165 T02220178





000
SAUS46 KSGX 290954
MTRCZZ
METAR KCZZ 290952Z AUTO 04004KT 17/09 A3009 RMK AO1 SLP152 T01720089





000
SAUS46 KSGX 290952
MTRSAN
METAR KSAN 290951Z 00000KT 10SM FEW010 SCT250 23/17 A3003 RMK AO2
SLP168 T02280172





000
SAUS46 KSGX 290853
MTRCZZ
METAR KCZZ 290852Z AUTO 03003KT 18/09 A3010 RMK AO1 SLP155 T01830094
56004





000
SAUS46 KSGX 290852
MTRSAN
METAR KSAN 290851Z 33004KT 10SM FEW010 SCT250 23/19 A3004 RMK AO2
SLP170 T02280189 58006





000
SAUS46 KSGX 290754
MTRCZZ
METAR KCZZ 290752Z AUTO 03004KT 19/09 A3010 RMK AO1 SLP156 T01890094
403440161





000
SAUS46 KSGX 290752
MTRSAN
METAR KSAN 290751Z 35004KT 10SM FEW010 SCT250 23/19 A3004 RMK AO2
SLP173 T02280194 402890217





000
SAUS46 KSGX 290655
MTRCZZ
METAR KCZZ 290652Z AUTO 03004KT 19/09 A3011 RMK AO1 SLP158 T01890094





000
SAUS46 KSGX 290653
MTRSAN
METAR KSAN 290651Z 00000KT 10SM FEW010 BKN250 23/19 A3005 RMK AO2
SLP176 T02280194





000
SAUS46 KSGX 290554
MTRCZZ
METAR KCZZ 290552Z AUTO 00000KT 21/09 A3011 RMK AO1 SLP159 T02060094
10333 20200 51015





000
SAUS46 KSGX 290552
MTRSAN
METAR KSAN 290551Z 30006KT 10SM FEW012 SCT220 23/19 A3005 RMK AO2
SLP176 T02330189 10278 20233 51013





000
SAUS46 KSGX 290453
MTRCZZ
METAR KCZZ 290452Z AUTO 23003KT 23/11 A3010 RMK AO1 SLP154 T02280111





000
SAUS46 KSGX 290452
MTRSAN
METAR KSAN 290451Z 29004KT 10SM FEW012 SCT220 23/18 A3005 RMK AO2
SLP175 T02330183





000
SAUS46 KSGX 290353
MTRCZZ
METAR KCZZ 290352Z AUTO 21010KT 24/11 A3008 RMK AO1 SLP149 T02390106





000
SAUS46 KSGX 290352
MTRSAN
METAR KSAN 290351Z 31004KT 10SM FEW012 SCT220 24/18 A3003 RMK AO2
SLP170 T02390178





000
SAUS46 KSGX 290253
MTRCZZ
METAR KCZZ 290252Z AUTO 21010KT 26/10 A3006 RMK AO1 SLP144 T02560100
53010





000
SAUS46 KSGX 290252
MTRSAN
METAR KSAN 290251Z 29006KT 10SM FEW012 SCT220 24/17 A3001 RMK AO2
SLP163 T02440172 53008





000
SAUS46 KSGX 290155
MTRCZZ
METAR KCZZ 290152Z AUTO 21012KT 29/09 A3004 RMK AO1 SLP138 T02890089





000
SAUS46 KSGX 290152
MTRSAN
METAR KSAN 290151Z 30006KT 10SM FEW010 SCT070 SCT220 26/15 A2999 RMK
AO2 SLP156 T02610150





000
SAUS46 KSGX 290054
MTRCZZ
METAR KCZZ 290052Z AUTO 25012G19KT 32/09 A3002 RMK AO1 SLP131
T03220094





000
SAUS46 KSGX 290052
MTRSAN
METAR KSAN 290051Z 30008KT 10SM FEW010 SCT070 SCT220 27/14 A2998 RMK
AO2 SLP151 T02670139





000
SAUS46 KSGX 282354
MTRCZZ
METAR KCZZ 282352Z AUTO 27009KT 240V300 33/11 A3003 RMK AO1 SLP132
T03280111 10344 20300 56012





000
SAUS46 KSGX 282352
MTRSAN
METAR KSAN 282351Z 31010KT 10SM FEW010 SCT070 SCT140 SCT220 27/18
A2999 RMK AO2 SLP155 T02670183 10289 20261 57016





000
SAUS46 KSGX 282253
MTRCZZ
METAR KCZZ 282252Z AUTO 26011G18KT 33/12 A3004 RMK AO1 SLP134
T03330122





000
SAUS46 KSGX 282252
MTRSAN
METAR KSAN 282251Z 29011KT 10SM FEW010 SCT070 SCT140 SCT220 27/19
A3001 RMK AO2 SLP160 CB DSNT NE T02720194





000
SAUS46 KSGX 282154
MTRCZZ
METAR KCZZ 282152Z AUTO 26007G20KT 230V300 34/13 A3005 RMK AO1
SLP140 T03390133





000
SAUS46 KSGX 282152
MTRSAN
METAR KSAN 282151Z 29010KT 10SM FEW010 SCT070 SCT140 SCT220 28/14
A3002 RMK AO2 SLP165 CB DSNT NE T02830139 $





000
SAUS46 KSGX 282054
MTRCZZ
METAR KCZZ 282052Z AUTO 23011G20KT 33/13 A3007 RMK AO1 SLP145
T03280128 58015





000
SAUS46 KSGX 282052
MTRSAN
METAR KSAN 282051Z 29007KT 10SM FEW070 SCT140 SCT220 27/16 A3004 RMK
AO2 SLP170 CB DSNT NE T02720156 58013





000
SAUS46 KSGX 281954
MTRSAN
METAR KSAN 281951Z 30007KT 10SM FEW070 SCT150 SCT220 28/13 A3005 RMK
AO2 SLP176 CB DSNT NE T02830128





000
SAUS46 KSGX 281953
MTRCZZ
METAR KCZZ 281952Z AUTO 22012KT 32/12 A3008 RMK AO1 SLP150 T03220122





000
SAUS46 KSGX 281854
MTRCZZ
METAR KCZZ 281852Z AUTO 19010KT 160V230 31/12 A3010 RMK AO1 SLP156
T03110122





000
SAUS46 KSGX 281852
MTRSAN
METAR KSAN 281851Z 29007KT 10SM FEW070 SCT150 SCT220 28/15 A3007 RMK
AO2 SLP181 T02780150





000
SAUS46 KSGX 281753
MTRCZZ
METAR KCZZ 281752Z AUTO 23010G16KT 190V260 31/13 A3011 RMK AO1
SLP160 T03060128 10306 20167 51001





000
SAUS46 KSGX 281752
MTRSAN
METAR KSAN 281751Z 28007KT 10SM FEW010 SCT140 SCT220 27/17 A3007 RMK
AO2 SLP184 T02670172 10272 20217 51006 $





000
SAUS46 KSGX 281654
MTRCZZ
METAR KCZZ 281652Z AUTO 22010G17KT 29/13 A3011 RMK AO1 SLP159
T02940133





000
SAUS46 KSGX 281652
MTRSAN
METAR KSAN 281651Z 31004KT 10SM FEW010 SCT140 BKN220 26/18 A3007 RMK
AO2 SLP183 T02610183





000
SAUS46 KSGX 281554
MTRCZZ
METAR KCZZ 281552Z AUTO 00000KT 27/14 A3011 RMK AO1 SLP160 T02670144





000
SAUS46 KSGX 281552
MTRSAN
METAR KSAN 281551Z 27005KT 10SM FEW010 SCT140 BKN220 24/19 A3007 RMK
AO2 SLP182 T02440189





000
SAUS46 KSGX 281454
MTRCZZ
METAR KCZZ 281452Z AUTO 00000KT 23/14 A3011 RMK AO1 SLP160 T02330144
52008





000
SAUS46 KSGX 281452
MTRSAN
METAR KSAN 281451Z 00000KT 9SM BKN120 BKN220 24/18 A3006 RMK AO2
SLP177 T02390183 53006





000
SAUS46 KSGX 281354
MTRCZZ
METAR KCZZ 281352Z AUTO 04003KT 17/13 A3010 RMK AO1 SLP159 T01720133





000
SAUS46 KSGX 281352
MTRSAN
METAR KSAN 281351Z 00000KT 8SM SCT120 SCT250 22/19 A3005 RMK AO2
SLP175 T02220189 $





000
SAUS46 KSGX 281256
MTRCZZ
METAR KCZZ 281252Z AUTO 04004KT 17/13 A3009 RMK AO1 SLP155 T01720133





000
SAUS46 KSGX 281253
MTRSAN
METAR KSAN 281251Z 00000KT 9SM FEW010 SCT140 BKN250 22/19 A3004 RMK
AO2 SLP170 T02220189 $





000
SAUS46 KSGX 281201
MTRSAN
SPECI KSAN 281159Z 01003KT 10SM FEW010 BKN140 22/19 A3004 RMK AO2 $





000
SAUS46 KSGX 281155
MTRCZZ
METAR KCZZ 281152Z AUTO 05003KT 17/13 A3008 RMK AO1 SLP151 T01670133
10217 20161 53001





000
SAUS46 KSGX 281152
MTRSAN
METAR KSAN 281151Z 01003KT 9SM BKN010 BKN140 22/19 A3004 RMK AO2
SLP171 T02170189 10228 20217 50002 $





000
SAUS46 KSGX 281147
MTRSAN
SPECI KSAN 281146Z 03004KT 9SM SCT010 BKN140 22/19 A3004 RMK AO2 $





000
SAUS46 KSGX 281137
MTRSAN
SPECI KSAN 281136Z 36004KT 10SM BKN010 BKN140 22/19 A3004 RMK AO2 $





000
SAUS46 KSGX 281054
MTRCZZ
METAR KCZZ 281052Z AUTO 05005KT 17/13 A3008 RMK AO1 SLP151 T01720128





000
SAUS46 KSGX 281052
MTRSAN
METAR KSAN 281051Z 36003KT 10SM SCT010 BKN250 22/19 A3003 RMK AO2
SLP169 T02220189 $





000
SAUS46 KSGX 281047
MTRSAN
SPECI KSAN 281046Z 34003KT 10SM SCT010 BKN250 22/19 A3003 RMK AO2 $





000
SAUS46 KSGX 280955
MTRCZZ
METAR KCZZ 280952Z AUTO 06003KT 17/13 A3008 RMK AO1 SLP150 T01720133





000
SAUS46 KSGX 280952
MTRSAN
METAR KSAN 280951Z 31003KT 9SM OVC010 22/19 A3004 RMK AO2 SLP172
T02170194 $





000
SAUS46 KSGX 280907
MTRSAN
SPECI KSAN 280906Z 30003KT 10SM BKN010 BKN200 22/19 A3003 RMK AO2 $





000
SAUS46 KSGX 280855
MTRCZZ
METAR KCZZ 280852Z AUTO 00000KT 17/13 A3008 RMK AO1 SLP152 T01670128
50006





000
SAUS46 KSGX 280852
MTRSAN
METAR KSAN 280851Z 31004KT 10SM SCT010 BKN200 22/19 A3004 RMK AO2
SLP170 T02170194 51005 $





000
SAUS46 KSGX 280836
MTRSAN
SPECI KSAN 280831Z COR 30003KT 9SM SCT010 BKN190 22/19 A3003 RMK AO2
$





000
SAUS46 KSGX 280833
MTRSAN
SPECI KSAN 280831Z 30003KT 9SM SCT010 22/19 A3003 RMK AO2 $





000
SAUS46 KSGX 280809
MTRSAN
SPECI KSAN 280807Z 25003KT 9SM BKN010 22/19 A3003 RMK AO2 $





000
SAUS46 KSGX 280754
MTRCZZ
METAR KCZZ 280752Z AUTO 03004KT 18/13 A3008 RMK AO1 SLP153 T01830133
403220156





000
SAUS46 KSGX 280752
MTRSAN
METAR KSAN 280751Z 00000KT 9SM SCT010 BKN190 22/19 A3003 RMK AO2
SLP169 T02220194 402670211 $





000
SAUS46 KSGX 280654
MTRCZZ
METAR KCZZ 280652Z AUTO 00000KT 21/15 A3008 RMK AO1 SLP150 T02060150





000
SAUS46 KSGX 280652
MTRSAN
METAR KSAN 280651Z 00000KT 10SM FEW010 SCT110 BKN190 23/19 A3003 RMK
AO2 SLP169 T02280194 $





000
SAUS46 KSGX 280554
MTRCZZ
METAR KCZZ 280552Z AUTO 00000KT 22/15 A3006 RMK AO1 SLP144 T02170150
10317 20217 51018





000
SAUS46 KSGX 280552
MTRSAN
METAR KSAN 280551Z 00000KT 9SM FEW015 SCT110 BKN250 22/19 A3002 RMK
AO2 SLP165 T02220194 10250 20222 51019 $





    US Dept of Commerce
    National Oceanic and Atmospheric Administration
    National Weather Service
    1325 East West Highway
    Silver Spring, MD 20910
    Page Author: NWS Internet Services Team
Disclaimer
Information Quality
Credits
Glossary
Privacy Policy
Freedom of Information Act (FOIA)
About Us
Career Opportunities